createdAt,value
2022-11-09T00:01:48.751Z,24.20
2022-11-09T00:04:16.546Z,25.30
2022-11-09T00:06:44.260Z,26.70
2022-11-09T00:09:49.339Z,24.80
2022-11-09T00:12:17.077Z,24.60
2022-11-09T00:14:44.947Z,24.40
2022-11-09T00:17:12.623Z,24.40
2022-11-09T00:19:40.470Z,28.30
2022-11-09T00:22:08.338Z,25.60
2022-11-09T00:24:36.587Z,25.30
2022-11-09T00:27:04.889Z,29.10
2022-11-09T00:29:33.649Z,25.90
2022-11-09T00:32:01.548Z,27.20
2022-11-09T00:34:29.206Z,24.50
2022-11-09T00:36:57.380Z,26.00
2022-11-09T00:39:25.138Z,26.00
2022-11-09T00:41:52.903Z,27.10
2022-11-09T00:44:20.558Z,26.30
2022-11-09T00:46:48.194Z,26.80
2022-11-09T00:49:15.991Z,26.80
2022-11-09T00:51:43.648Z,26.90
2022-11-09T00:54:11.720Z,30.00
2022-11-09T00:56:39.490Z,28.10
2022-11-09T00:59:07.168Z,28.70
2022-11-09T01:01:34.992Z,30.50
2022-11-09T01:04:02.802Z,29.30
2022-11-09T01:06:33.918Z,29.40
2022-11-09T01:09:01.987Z,27.00
2022-11-09T01:11:29.655Z,24.30
2022-11-09T01:13:59.108Z,26.30
2022-11-09T01:16:27.036Z,27.40
2022-11-09T01:18:55.714Z,28.20
2022-11-09T01:21:23.782Z,27.80
2022-11-09T01:23:51.846Z,25.00
2022-11-09T01:26:19.505Z,28.20
2022-11-09T01:28:47.473Z,29.00
2022-11-09T01:31:16.979Z,27.50
2022-11-09T01:33:45.051Z,26.90
2022-11-09T01:36:20.237Z,28.90
2022-11-09T01:38:48.567Z,31.50
2022-11-09T01:41:17.878Z,27.90
2022-11-09T01:43:47.060Z,31.20
2022-11-09T01:46:20.853Z,30.50
2022-11-09T01:48:53.955Z,31.60
2022-11-09T01:51:27.964Z,29.30
2022-11-09T01:53:59.004Z,28.50
2022-11-09T01:56:26.944Z,27.20
2022-11-09T01:59:05.898Z,35.30
2022-11-09T02:01:33.846Z,29.20
2022-11-09T02:04:04.400Z,29.00
2022-11-09T02:06:32.973Z,28.20
2022-11-09T02:09:05.656Z,29.10
2022-11-09T02:11:35.056Z,25.90
2022-11-09T02:14:03.336Z,25.10
2022-11-09T02:16:32.156Z,27.00
2022-11-09T02:19:03.409Z,27.00
2022-11-09T02:21:32.050Z,27.70
2022-11-09T02:24:00.302Z,27.60
2022-11-09T02:26:40.670Z,27.20
2022-11-09T02:29:09.596Z,26.00
2022-11-09T02:31:39.358Z,25.50
2022-11-09T02:34:08.890Z,28.60
2022-11-09T02:36:36.975Z,26.20
2022-11-09T02:39:05.439Z,26.00
2022-11-09T02:41:36.490Z,26.40
2022-11-09T02:44:04.449Z,28.20
2022-11-09T02:46:33.681Z,24.70
2022-11-09T02:49:01.716Z,27.00
2022-11-09T02:51:29.941Z,26.20
2022-11-09T02:53:57.754Z,28.60
2022-11-09T02:56:25.457Z,31.20
2022-11-09T02:58:53.239Z,29.70
2022-11-09T03:01:23.378Z,27.30
2022-11-09T03:03:51.259Z,28.80
2022-11-09T03:06:20.058Z,30.00
2022-11-09T03:08:47.921Z,28.50
2022-11-09T03:11:15.730Z,26.40
2022-11-09T03:13:43.316Z,27.10
2022-11-09T03:16:11.418Z,30.10
2022-11-09T03:18:39.177Z,29.90
2022-11-09T03:21:06.941Z,29.60
2022-11-09T03:23:34.604Z,28.50
2022-11-09T03:26:02.325Z,31.40
2022-11-09T03:28:29.925Z,33.50
2022-11-09T03:30:57.506Z,28.20
2022-11-09T03:33:25.350Z,31.30
2022-11-09T03:35:53.219Z,30.20
2022-11-09T03:38:21.172Z,28.90
2022-11-09T03:40:49.170Z,30.50
2022-11-09T03:43:17.462Z,30.90
2022-11-09T03:45:46.954Z,31.90
2022-11-09T03:48:15.041Z,29.80
2022-11-09T03:50:43.370Z,32.90
2022-11-09T03:53:11.452Z,28.70
2022-11-09T03:55:39.625Z,28.10
2022-11-09T03:58:08.309Z,29.80
2022-11-09T04:00:36.400Z,34.30
2022-11-09T04:03:04.145Z,31.70
2022-11-09T04:05:31.895Z,32.10
2022-11-09T04:07:59.814Z,29.90
2022-11-09T04:10:28.565Z,33.10
2022-11-09T04:12:56.435Z,30.90
2022-11-09T04:15:24.194Z,34.50
2022-11-09T04:17:58.440Z,33.40
2022-11-09T04:20:26.988Z,36.30
2022-11-09T04:23:02.124Z,34.50
2022-11-09T04:25:32.858Z,31.90
2022-11-09T04:28:01.031Z,33.10
2022-11-09T04:30:29.522Z,33.60
2022-11-09T04:32:58.404Z,33.50
2022-11-09T04:35:26.988Z,34.60
2022-11-09T04:37:56.500Z,34.10
2022-11-09T04:40:25.482Z,38.00
2022-11-09T04:42:53.324Z,36.60
2022-11-09T04:45:21.725Z,36.20
2022-11-09T04:47:49.694Z,33.10
2022-11-09T04:50:17.455Z,34.70
2022-11-09T04:52:45.117Z,36.80
2022-11-09T04:55:12.718Z,38.50
2022-11-09T04:57:40.340Z,38.20
2022-11-09T05:00:09.234Z,36.40
2022-11-09T05:02:37.093Z,37.60
2022-11-09T05:05:05.164Z,33.80
2022-11-09T05:07:32.927Z,35.20
2022-11-09T05:10:00.796Z,37.10
2022-11-09T05:12:28.566Z,37.90
2022-11-09T05:14:56.212Z,32.90
2022-11-09T05:17:23.825Z,33.30
2022-11-09T05:19:55.891Z,37.40
2022-11-09T05:22:42.974Z,33.00
2022-11-09T05:25:10.626Z,35.00
2022-11-09T05:27:38.752Z,40.40
2022-11-09T05:30:07.569Z,33.30
2022-11-09T05:32:36.785Z,37.10
2022-11-09T05:35:04.949Z,35.20
2022-11-09T05:37:32.715Z,34.50
2022-11-09T05:40:00.659Z,40.30
2022-11-09T05:42:28.302Z,38.60
2022-11-09T05:44:56.164Z,39.70
2022-11-09T05:47:23.870Z,40.30
2022-11-09T05:49:51.533Z,37.40
2022-11-09T05:52:19.737Z,39.20
2022-11-09T05:54:47.473Z,37.40
2022-11-09T05:57:15.199Z,38.20
2022-11-09T05:59:42.917Z,40.50
2022-11-09T06:02:10.903Z,40.40
2022-11-09T06:04:38.934Z,39.50
2022-11-09T06:07:06.741Z,41.50
2022-11-09T06:09:34.560Z,35.80
2022-11-09T06:12:02.324Z,38.60
2022-11-09T06:14:30.395Z,38.20
2022-11-09T06:16:58.424Z,39.20
2022-11-09T06:19:26.864Z,36.80
2022-11-09T06:21:54.813Z,39.40
2022-11-09T06:24:22.528Z,42.00
2022-11-09T06:26:50.645Z,43.00
2022-11-09T06:29:18.513Z,41.70
2022-11-09T06:31:47.402Z,40.50
2022-11-09T06:34:15.472Z,39.90
2022-11-09T06:36:44.059Z,42.40
2022-11-09T06:39:11.923Z,38.30
2022-11-09T06:41:43.370Z,37.50
2022-11-09T06:44:15.852Z,40.10
2022-11-09T06:46:43.710Z,38.50
2022-11-09T06:49:11.681Z,38.00
2022-11-09T06:51:39.851Z,36.90
2022-11-09T06:54:07.618Z,37.80
2022-11-09T06:56:35.378Z,36.70
2022-11-09T06:59:04.608Z,34.60
2022-11-09T07:01:32.510Z,37.20
2022-11-09T07:04:01.442Z,37.20
2022-11-09T07:06:29.283Z,39.00
2022-11-09T07:08:57.241Z,35.90
2022-11-09T07:11:25.040Z,34.20
2022-11-09T07:13:57.239Z,35.80
2022-11-09T07:16:25.584Z,33.00
2022-11-09T07:18:53.271Z,32.50
2022-11-09T07:21:21.097Z,33.10
2022-11-09T07:23:49.378Z,33.20
2022-11-09T07:26:17.382Z,34.50
2022-11-09T07:28:45.112Z,32.30
2022-11-09T07:31:12.837Z,37.80
2022-11-09T07:33:40.741Z,32.30
2022-11-09T07:36:09.219Z,34.70
2022-11-09T07:38:36.992Z,31.90
2022-11-09T07:41:05.259Z,33.50
2022-11-09T07:43:33.128Z,33.80
2022-11-09T07:46:03.621Z,33.60
2022-11-09T07:48:31.622Z,32.30
2022-11-09T07:51:00.788Z,33.00
2022-11-09T07:53:28.684Z,32.70
2022-11-09T07:55:57.675Z,29.90
2022-11-09T07:58:25.849Z,31.30
2022-11-09T08:00:53.612Z,33.10
2022-11-09T08:03:22.639Z,31.40
2022-11-09T08:05:50.777Z,30.30
2022-11-09T08:08:18.647Z,31.10
2022-11-09T08:10:51.955Z,28.90
2022-11-09T08:13:20.495Z,29.80
2022-11-09T08:15:49.653Z,30.40
2022-11-09T08:18:19.319Z,28.00
2022-11-09T08:20:48.421Z,30.10
2022-11-09T08:23:17.722Z,28.60
2022-11-09T08:25:45.423Z,28.70
2022-11-09T08:28:16.274Z,30.40
2022-11-09T08:30:44.654Z,27.20
2022-11-09T08:33:13.283Z,27.60
2022-11-09T08:35:40.948Z,28.40
2022-11-09T08:38:09.483Z,26.60
2022-11-09T08:40:37.490Z,26.80
2022-11-09T08:43:06.711Z,29.50
2022-11-09T08:45:35.890Z,26.20
2022-11-09T08:48:03.960Z,27.90
2022-11-09T08:50:32.329Z,25.80
2022-11-09T08:53:00.914Z,25.80
2022-11-09T08:55:28.886Z,28.00
2022-11-09T08:57:57.261Z,24.60
2022-11-09T09:00:25.602Z,25.50
2022-11-09T09:02:53.404Z,26.20
2022-11-09T09:05:21.742Z,25.20
2022-11-09T09:07:49.651Z,27.30
2022-11-09T09:10:17.412Z,25.90
2022-11-09T09:12:45.171Z,25.50
2022-11-09T09:15:15.274Z,25.20
2022-11-09T09:17:43.582Z,23.90
2022-11-09T09:20:11.541Z,26.40
2022-11-09T09:22:40.425Z,27.20
2022-11-09T09:25:08.699Z,25.90
2022-11-09T09:27:36.567Z,24.30
2022-11-09T09:30:05.308Z,29.10
2022-11-09T09:32:32.976Z,26.30
2022-11-09T09:35:00.860Z,26.20
2022-11-09T09:37:29.258Z,28.10
2022-11-09T09:39:57.058Z,27.40
2022-11-09T09:42:34.184Z,25.60
2022-11-09T09:45:14.879Z,27.60
2022-11-09T09:47:54.003Z,25.00
2022-11-09T09:50:23.236Z,29.00
2022-11-09T09:53:22.565Z,27.20
2022-11-09T09:55:57.743Z,27.10
2022-11-09T09:58:30.425Z,27.00
2022-11-09T10:01:03.615Z,24.80
2022-11-09T10:03:31.682Z,26.20
2022-11-09T10:06:18.605Z,25.90
2022-11-09T10:09:06.093Z,25.80
2022-11-09T10:11:34.293Z,25.40
2022-11-09T10:14:16.820Z,25.40
2022-11-09T10:16:50.944Z,22.80
2022-11-09T10:19:18.566Z,26.20
2022-11-09T10:22:05.812Z,26.60
2022-11-09T10:25:18.650Z,25.90
2022-11-09T10:27:43.012Z,24.10
2022-11-09T10:30:13.423Z,27.80
2022-11-09T10:32:43.343Z,26.20
2022-11-09T10:35:17.349Z,25.40
2022-11-09T10:37:46.771Z,23.60
2022-11-09T10:40:33.769Z,26.10
2022-11-09T10:43:02.859Z,28.00
2022-11-09T10:45:34.726Z,24.00
2022-11-09T10:48:02.852Z,25.10
2022-11-09T10:50:52.473Z,24.90
2022-11-09T10:53:21.563Z,24.60
2022-11-09T10:55:52.623Z,23.90
2022-11-09T10:58:25.589Z,23.10
2022-11-09T11:01:13.431Z,20.90
2022-11-09T11:03:42.619Z,25.30
2022-11-09T11:06:18.696Z,22.30
2022-11-09T11:08:48.130Z,23.90
2022-11-09T11:11:33.353Z,22.80
2022-11-09T11:14:11.668Z,25.10
2022-11-09T11:16:40.147Z,23.00
2022-11-09T11:19:26.469Z,22.30
2022-11-09T11:22:12.347Z,21.40
2022-11-09T11:25:00.271Z,23.00
2022-11-09T11:27:51.147Z,23.50
2022-11-09T11:30:23.046Z,25.00
2022-11-09T11:32:52.129Z,22.90
2022-11-09T11:35:29.340Z,23.60
2022-11-09T11:40:30.682Z,23.80
2022-11-09T11:42:59.155Z,27.40
2022-11-09T11:45:41.535Z,24.60
2022-11-09T11:48:24.708Z,26.50
2022-11-09T11:51:14.465Z,27.00
2022-11-09T11:53:48.595Z,23.20
2022-11-09T11:56:26.659Z,23.40
2022-11-09T11:59:07.246Z,23.20
2022-11-09T12:01:54.382Z,23.10
2022-11-09T12:04:44.656Z,22.90
2022-11-09T12:07:12.679Z,25.20
2022-11-09T12:09:59.259Z,21.60
2022-11-09T12:12:26.993Z,23.70
2022-11-09T12:15:00.611Z,22.40
2022-11-09T12:17:31.844Z,24.30
2022-11-09T12:20:35.346Z,22.20
2022-11-09T12:23:25.631Z,23.90
2022-11-09T12:25:53.198Z,21.40
2022-11-09T12:28:23.922Z,24.10
2022-11-09T12:31:04.080Z,22.20
2022-11-09T12:33:34.880Z,22.90
2022-11-09T12:36:21.651Z,19.90
2022-11-09T12:39:15.906Z,22.90
2022-11-09T12:41:44.701Z,21.20
2022-11-09T12:44:33.660Z,23.70
2022-11-09T12:47:15.978Z,21.90
2022-11-09T12:49:45.156Z,21.90
2022-11-09T12:52:19.574Z,22.10
2022-11-09T12:54:49.180Z,20.50
2022-11-09T12:57:24.631Z,22.40
2022-11-09T12:59:53.936Z,23.50
2022-11-09T13:02:28.925Z,21.70
2022-11-09T13:05:01.560Z,22.40
2022-11-09T13:07:44.704Z,28.40
2022-11-09T13:10:31.110Z,21.30
2022-11-09T13:13:19.556Z,21.90
2022-11-09T13:16:06.649Z,23.90
2022-11-09T13:18:41.585Z,22.70
2022-11-09T13:21:21.390Z,20.80
2022-11-09T13:24:09.100Z,22.80
2022-11-09T13:26:38.330Z,22.80
2022-11-09T13:29:09.178Z,24.80
2022-11-09T13:31:56.182Z,22.60
2022-11-09T13:34:44.268Z,22.70
2022-11-09T13:37:31.030Z,23.50
2022-11-09T13:39:58.925Z,24.80
2022-11-09T13:42:28.092Z,22.30
2022-11-09T13:45:15.843Z,21.70
2022-11-09T13:47:50.660Z,22.90
2022-11-09T13:50:27.250Z,22.40
2022-11-09T13:53:15.399Z,22.30
2022-11-09T13:55:43.435Z,23.10
2022-11-09T13:58:15.879Z,22.00
2022-11-09T14:00:47.681Z,22.90
2022-11-09T14:03:34.175Z,21.30
2022-11-09T14:06:03.068Z,23.50
2022-11-09T14:08:40.334Z,21.80
2022-11-09T14:11:21.743Z,23.90
2022-11-09T14:14:03.192Z,23.60
2022-11-09T14:16:34.152Z,24.70
2022-11-09T14:19:17.479Z,25.70
2022-11-09T14:21:53.343Z,26.80
2022-11-09T14:24:34.719Z,28.80
2022-11-09T14:27:03.101Z,27.20
2022-11-09T14:29:33.334Z,24.90
2022-11-09T14:32:02.927Z,28.60
2022-11-09T14:34:30.995Z,27.00
2022-11-09T14:37:01.904Z,27.70
2022-11-09T14:39:34.473Z,26.70
2022-11-09T14:42:02.592Z,25.50
2022-11-09T14:44:36.048Z,27.60
2022-11-09T14:47:05.066Z,26.90
2022-11-09T14:49:33.138Z,29.80
2022-11-09T14:52:01.211Z,29.40
2022-11-09T14:54:29.400Z,27.70
2022-11-09T14:56:58.382Z,29.90
2022-11-09T14:59:31.770Z,29.40
2022-11-09T15:02:05.547Z,28.80
2022-11-09T15:04:52.898Z,28.80
2022-11-09T15:07:22.676Z,30.00
2022-11-09T15:09:58.565Z,28.20
2022-11-09T15:12:26.804Z,29.90
2022-11-09T15:15:05.456Z,29.90
2022-11-09T15:17:36.404Z,30.30
2022-11-09T15:20:24.740Z,30.40
2022-11-09T15:22:52.726Z,31.90
2022-11-09T15:25:27.409Z,32.40
2022-11-09T15:28:15.713Z,27.80
2022-11-09T15:30:46.375Z,31.50
2022-11-09T15:33:25.509Z,30.00
2022-11-09T15:35:55.664Z,32.50
2022-11-09T15:38:37.863Z,32.30
2022-11-09T15:41:15.348Z,30.50
2022-11-09T15:43:43.524Z,29.70
2022-11-09T15:46:15.630Z,32.90
2022-11-09T15:48:46.367Z,31.60
2022-11-09T15:51:15.012Z,37.00
2022-11-09T15:53:42.783Z,35.00
2022-11-09T15:56:14.696Z,33.20
2022-11-09T15:58:42.803Z,35.40
2022-11-09T16:01:10.830Z,41.10
2022-11-09T16:03:38.917Z,37.70
2022-11-09T16:06:09.995Z,40.00
2022-11-09T16:08:37.956Z,34.70
2022-11-09T16:11:06.536Z,38.50
2022-11-09T16:13:34.609Z,37.10
2022-11-09T16:16:05.157Z,39.60
2022-11-09T16:18:34.465Z,38.50
2022-11-09T16:21:09.065Z,41.10
2022-11-09T16:23:37.351Z,39.40
2022-11-09T16:26:09.195Z,36.80
2022-11-09T16:28:37.686Z,34.40
2022-11-09T16:31:06.061Z,31.70
2022-11-09T16:33:33.984Z,33.70
2022-11-09T16:36:04.192Z,33.40
2022-11-09T16:38:35.305Z,34.80
2022-11-09T16:41:03.747Z,35.90
2022-11-09T16:43:32.451Z,33.50
2022-11-09T16:46:00.578Z,34.40
2022-11-09T16:48:28.692Z,37.50
2022-11-09T16:50:57.182Z,39.80
2022-11-09T16:53:27.276Z,38.30
2022-11-09T16:55:55.670Z,40.80
2022-11-09T16:58:24.075Z,40.50
2022-11-09T17:01:10.423Z,40.10
2022-11-09T17:03:40.623Z,36.60
2022-11-09T17:06:12.027Z,43.10
2022-11-09T17:08:41.424Z,44.30
2022-11-09T17:11:10.306Z,43.50
2022-11-09T17:13:38.377Z,42.50
2022-11-09T17:16:10.645Z,41.50
2022-11-09T17:18:39.439Z,45.10
2022-11-09T17:21:11.910Z,38.60
2022-11-09T17:23:40.311Z,42.50
2022-11-09T17:26:08.979Z,41.20
2022-11-09T17:28:42.480Z,39.70
2022-11-09T17:31:15.457Z,41.20
2022-11-09T17:33:46.298Z,46.60
2022-11-09T17:36:16.312Z,41.80
2022-11-09T17:38:45.526Z,40.60
2022-11-09T17:41:15.317Z,45.30
2022-11-09T17:43:44.007Z,44.20
2022-11-09T17:46:11.970Z,44.20
2022-11-09T17:48:41.167Z,40.10
2022-11-09T17:51:10.172Z,43.90
2022-11-09T17:53:38.535Z,39.60
2022-11-09T17:56:11.934Z,44.30
2022-11-09T17:58:41.026Z,41.00
2022-11-09T18:01:12.681Z,41.90
2022-11-09T18:03:42.490Z,41.20
2022-11-09T18:06:12.712Z,41.20
2022-11-09T18:08:41.192Z,42.50
2022-11-09T18:11:09.269Z,41.00
2022-11-09T18:13:37.544Z,42.70
2022-11-09T18:16:14.625Z,42.10
2022-11-09T18:18:46.280Z,46.70
2022-11-09T18:21:19.078Z,42.80
2022-11-09T18:23:46.894Z,47.10
2022-11-09T18:26:14.639Z,48.00
2022-11-09T18:28:45.532Z,49.60
2022-11-09T18:31:14.955Z,46.20
2022-11-09T18:33:44.019Z,46.10
2022-11-09T18:36:16.278Z,46.90
2022-11-09T18:38:44.569Z,45.70
2022-11-09T18:41:14.492Z,45.20
2022-11-09T18:43:42.754Z,49.50
2022-11-09T18:46:12.387Z,46.20
2022-11-09T18:48:40.326Z,50.80
2022-11-09T18:51:11.408Z,60.00
2022-11-09T18:53:44.259Z,83.50
2022-11-09T18:56:19.492Z,60.30
2022-11-09T18:58:47.974Z,47.00
2022-11-09T19:01:16.709Z,44.20
2022-11-09T19:03:45.545Z,43.00
2022-11-09T19:06:14.956Z,42.40
2022-11-09T19:09:01.690Z,42.00
2022-11-09T19:11:30.342Z,46.20
2022-11-09T19:13:58.996Z,43.90
2022-11-09T19:16:27.406Z,45.10
2022-11-09T19:18:55.987Z,46.50
2022-11-09T19:21:44.151Z,46.60
2022-11-09T19:24:13.141Z,42.00
2022-11-09T19:26:43.065Z,48.60
2022-11-09T19:29:12.552Z,43.90
2022-11-09T19:31:44.294Z,43.90
2022-11-09T19:34:14.761Z,45.60
2022-11-09T19:36:44.273Z,43.60
2022-11-09T19:39:14.458Z,47.00
2022-11-09T19:41:42.824Z,45.40
2022-11-09T19:44:13.609Z,48.80
2022-11-09T19:46:41.800Z,44.40
2022-11-09T19:49:10.635Z,48.00
2022-11-09T19:51:40.267Z,48.90
2022-11-09T19:54:08.616Z,51.80
2022-11-09T19:56:38.840Z,47.90
2022-11-09T19:59:11.839Z,48.70
2022-11-09T20:01:40.188Z,48.10
2022-11-09T20:04:10.543Z,47.20
2022-11-09T20:06:39.858Z,46.40
2022-11-09T20:09:08.949Z,50.70
2022-11-09T20:11:59.104Z,46.80
2022-11-09T20:14:29.789Z,45.90
2022-11-09T20:17:03.198Z,50.10
2022-11-09T20:19:32.063Z,49.70
2022-11-09T20:22:01.114Z,46.30
2022-11-09T20:24:29.076Z,49.50
2022-11-09T20:26:57.167Z,50.80
2022-11-09T20:29:28.034Z,51.60
2022-11-09T20:31:55.954Z,48.40
2022-11-09T20:34:25.860Z,50.10
2022-11-09T20:36:57.726Z,51.10
2022-11-09T20:39:26.312Z,52.30
2022-11-09T20:41:54.684Z,47.30
2022-11-09T20:44:25.450Z,48.70
2022-11-09T20:46:54.522Z,49.40
2022-11-09T20:49:23.200Z,48.50
2022-11-09T20:51:51.279Z,50.40
2022-11-09T20:54:19.753Z,50.90
2022-11-09T20:56:47.943Z,51.50
2022-11-09T20:59:16.221Z,49.40
2022-11-09T21:01:46.929Z,52.60
2022-11-09T21:04:15.207Z,49.80
2022-11-09T21:06:43.525Z,51.70
2022-11-09T21:09:11.862Z,50.20
2022-11-09T21:11:59.750Z,48.90
2022-11-09T21:14:27.866Z,51.60
2022-11-09T21:16:56.469Z,48.80
2022-11-09T21:19:24.424Z,50.20
2022-11-09T21:21:52.600Z,52.70
2022-11-09T21:24:39.607Z,50.00
2022-11-09T21:27:28.773Z,48.50
2022-11-09T21:29:57.560Z,52.70
2022-11-09T21:32:25.568Z,45.90
2022-11-09T21:34:53.599Z,51.40
2022-11-09T21:37:21.770Z,50.60
2022-11-09T21:39:50.442Z,49.80
2022-11-09T21:42:19.344Z,54.20
2022-11-09T21:44:47.112Z,47.30
2022-11-09T21:47:15.697Z,47.10
2022-11-09T21:49:43.878Z,48.80
2022-11-09T21:52:11.742Z,49.00
2022-11-09T21:54:40.826Z,49.10
2022-11-09T21:57:08.593Z,49.20
2022-11-09T21:59:36.459Z,48.60
2022-11-09T22:02:04.255Z,51.30
2022-11-09T22:04:34.432Z,46.70
2022-11-09T22:07:03.280Z,48.70
2022-11-09T22:09:50.565Z,46.10
2022-11-09T22:12:38.847Z,46.50
2022-11-09T22:15:27.247Z,45.60
2022-11-09T22:17:55.373Z,48.30
2022-11-09T22:20:42.333Z,45.50
2022-11-09T22:25:41.701Z,47.80
2022-11-09T22:28:13.090Z,44.40
2022-11-09T22:30:41.269Z,47.40
2022-11-09T22:33:09.539Z,45.70
2022-11-09T22:35:37.306Z,46.50
2022-11-09T22:38:05.055Z,45.90
2022-11-09T22:40:32.829Z,47.60
2022-11-09T22:43:00.797Z,46.10
2022-11-09T22:45:28.566Z,43.80
2022-11-09T22:47:56.530Z,45.80
2022-11-09T22:50:24.297Z,49.30
2022-11-09T22:52:54.080Z,46.90
2022-11-09T22:55:21.990Z,45.30
2022-11-09T22:57:49.733Z,47.60
2022-11-09T23:00:17.704Z,46.00
2022-11-09T23:02:46.195Z,44.60
2022-11-09T23:05:14.361Z,46.40
2022-11-09T23:07:42.325Z,43.50
2022-11-09T23:10:10.496Z,43.80
2022-11-09T23:12:38.267Z,46.20
2022-11-09T23:15:07.049Z,43.50
2022-11-09T23:17:54.858Z,41.60
2022-11-09T23:20:24.980Z,44.70
2022-11-09T23:22:53.071Z,44.40
2022-11-09T23:25:39.780Z,42.20
2022-11-09T23:28:07.648Z,41.60
2022-11-09T23:30:35.314Z,43.90
2022-11-09T23:33:03.082Z,43.70
2022-11-09T23:35:31.519Z,43.90
2022-11-09T23:37:59.824Z,44.60
2022-11-09T23:40:28.308Z,44.80
2022-11-09T23:43:06.924Z,43.10
2022-11-09T23:45:35.518Z,41.60
2022-11-09T23:48:03.681Z,46.50
2022-11-09T23:50:31.651Z,44.70
2022-11-09T23:53:00.333Z,43.00
2022-11-09T23:55:28.678Z,44.00
2022-11-09T23:57:56.678Z,42.40
